sensor_id;sensor_type;location;lat;lon;timestamp;P1;durP1;ratioP1;P2;durP2;ratioP2
52368;SDS011;38298;50.346;3.526;2022-08-25T00:01:20;6.20;;;1.75;;
52368;SDS011;38298;50.346;3.526;2022-08-25T00:06:13;2.63;;;1.92;;
52368;SDS011;38298;50.346;3.526;2022-08-25T00:08:39;7.10;;;1.83;;
52368;SDS011;38298;50.346;3.526;2022-08-25T00:11:06;2.63;;;1.88;;
52368;SDS011;38298;50.346;3.526;2022-08-25T00:13:33;7.15;;;2.10;;
52368;SDS011;38298;50.346;3.526;2022-08-25T00:15:59;3.92;;;2.20;;
52368;SDS011;38298;50.346;3.526;2022-08-25T00:18:25;8.65;;;2.55;;
52368;SDS011;38298;50.346;3.526;2022-08-25T00:20:51;3.97;;;2.45;;
52368;SDS011;38298;50.346;3.526;2022-08-25T00:23:18;3.10;;;2.38;;
52368;SDS011;38298;50.346;3.526;2022-08-25T00:25:44;3.83;;;1.88;;
52368;SDS011;38298;50.346;3.526;2022-08-25T00:28:11;3.45;;;2.25;;
52368;SDS011;38298;50.346;3.526;2022-08-25T00:30:40;4.38;;;2.08;;
52368;SDS011;38298;50.346;3.526;2022-08-25T00:33:06;6.57;;;2.38;;
52368;SDS011;38298;50.346;3.526;2022-08-25T00:35:33;5.43;;;2.30;;
52368;SDS011;38298;50.346;3.526;2022-08-25T00:37:59;8.52;;;2.70;;
52368;SDS011;38298;50.346;3.526;2022-08-25T00:40:26;3.30;;;2.30;;
52368;SDS011;38298;50.346;3.526;2022-08-25T00:42:52;4.40;;;2.38;;
52368;SDS011;38298;50.346;3.526;2022-08-25T00:45:18;4.57;;;2.20;;
52368;SDS011;38298;50.346;3.526;2022-08-25T00:47:45;5.80;;;2.40;;
52368;SDS011;38298;50.346;3.526;2022-08-25T00:50:11;3.28;;;2.60;;
52368;SDS011;38298;50.346;3.526;2022-08-25T00:52:38;4.15;;;2.63;;
52368;SDS011;38298;50.346;3.526;2022-08-25T00:55:28;5.40;;;2.83;;
52368;SDS011;38298;50.346;3.526;2022-08-25T01:00:21;5.43;;;2.55;;
52368;SDS011;38298;50.346;3.526;2022-08-25T01:02:48;5.60;;;2.72;;
52368;SDS011;38298;50.346;3.526;2022-08-25T01:05:14;8.40;;;2.70;;
52368;SDS011;38298;50.346;3.526;2022-08-25T01:07:42;8.68;;;2.85;;
52368;SDS011;38298;50.346;3.526;2022-08-25T01:10:08;6.03;;;2.28;;
52368;SDS011;38298;50.346;3.526;2022-08-25T01:12:35;6.15;;;2.55;;
52368;SDS011;38298;50.346;3.526;2022-08-25T01:15:02;8.55;;;2.50;;
52368;SDS011;38298;50.346;3.526;2022-08-25T01:17:33;6.47;;;2.30;;
52368;SDS011;38298;50.346;3.526;2022-08-25T01:19:59;4.82;;;2.40;;
52368;SDS011;38298;50.346;3.526;2022-08-25T01:22:26;3.08;;;2.40;;
52368;SDS011;38298;50.346;3.526;2022-08-25T01:24:56;5.18;;;2.80;;
52368;SDS011;38298;50.346;3.526;2022-08-25T01:27:24;4.03;;;2.47;;
52368;SDS011;38298;50.346;3.526;2022-08-25T01:29:50;4.95;;;2.72;;
52368;SDS011;38298;50.346;3.526;2022-08-25T01:32:16;3.28;;;2.40;;
52368;SDS011;38298;50.346;3.526;2022-08-25T01:34:43;2.55;;;2.30;;
52368;SDS011;38298;50.346;3.526;2022-08-25T01:37:10;5.07;;;2.75;;
52368;SDS011;38298;50.346;3.526;2022-08-25T01:39:37;9.27;;;3.08;;
52368;SDS011;38298;50.346;3.526;2022-08-25T01:44:34;6.43;;;2.60;;
52368;SDS011;38298;50.346;3.526;2022-08-25T01:47:01;5.95;;;2.08;;
52368;SDS011;38298;50.346;3.526;2022-08-25T01:49:27;4.45;;;2.75;;
52368;SDS011;38298;50.346;3.526;2022-08-25T01:52:00;4.65;;;2.90;;
52368;SDS011;38298;50.346;3.526;2022-08-25T01:54:26;3.42;;;2.40;;
52368;SDS011;38298;50.346;3.526;2022-08-25T01:56:52;7.22;;;2.97;;
52368;SDS011;38298;50.346;3.526;2022-08-25T01:59:19;3.45;;;2.42;;
52368;SDS011;38298;50.346;3.526;2022-08-25T02:01:46;4.30;;;2.60;;
52368;SDS011;38298;50.346;3.526;2022-08-25T02:04:12;5.72;;;2.35;;
52368;SDS011;38298;50.346;3.526;2022-08-25T02:06:38;4.25;;;2.90;;
52368;SDS011;38298;50.346;3.526;2022-08-25T02:09:06;9.57;;;3.05;;
52368;SDS011;38298;50.346;3.526;2022-08-25T02:11:34;6.38;;;2.65;;
52368;SDS011;38298;50.346;3.526;2022-08-25T02:14:00;4.68;;;2.45;;
52368;SDS011;38298;50.346;3.526;2022-08-25T02:16:27;3.35;;;2.67;;
52368;SDS011;38298;50.346;3.526;2022-08-25T02:18:54;5.85;;;2.40;;
52368;SDS011;38298;50.346;3.526;2022-08-25T02:21:20;6.38;;;2.88;;
52368;SDS011;38298;50.346;3.526;2022-08-25T02:23:46;7.05;;;2.90;;
52368;SDS011;38298;50.346;3.526;2022-08-25T02:26:12;7.57;;;2.90;;
52368;SDS011;38298;50.346;3.526;2022-08-25T02:28:41;6.63;;;2.95;;
52368;SDS011;38298;50.346;3.526;2022-08-25T02:31:07;9.00;;;3.20;;
52368;SDS011;38298;50.346;3.526;2022-08-25T02:33:33;6.13;;;3.00;;
52368;SDS011;38298;50.346;3.526;2022-08-25T02:36:00;3.80;;;2.67;;
52368;SDS011;38298;50.346;3.526;2022-08-25T02:38:27;5.20;;;2.63;;
52368;SDS011;38298;50.346;3.526;2022-08-25T02:40:54;6.43;;;3.10;;
52368;SDS011;38298;50.346;3.526;2022-08-25T02:43:20;8.80;;;2.97;;
52368;SDS011;38298;50.346;3.526;2022-08-25T02:45:46;4.45;;;3.00;;
52368;SDS011;38298;50.346;3.526;2022-08-25T02:48:12;5.00;;;3.08;;
52368;SDS011;38298;50.346;3.526;2022-08-25T02:50:38;4.47;;;2.92;;
52368;SDS011;38298;50.346;3.526;2022-08-25T02:53:04;4.60;;;3.22;;
52368;SDS011;38298;50.346;3.526;2022-08-25T02:55:31;8.57;;;3.38;;
52368;SDS011;38298;50.346;3.526;2022-08-25T02:57:57;4.22;;;3.00;;
52368;SDS011;38298;50.346;3.526;2022-08-25T03:00:23;4.53;;;3.58;;
52368;SDS011;38298;50.346;3.526;2022-08-25T03:02:50;7.60;;;3.50;;
52368;SDS011;38298;50.346;3.526;2022-08-25T03:05:16;6.50;;;3.50;;
52368;SDS011;38298;50.346;3.526;2022-08-25T03:07:42;8.65;;;3.17;;
52368;SDS011;38298;50.346;3.526;2022-08-25T03:10:13;5.38;;;2.67;;
52368;SDS011;38298;50.346;3.526;2022-08-25T03:12:40;8.15;;;3.15;;
52368;SDS011;38298;50.346;3.526;2022-08-25T03:15:07;4.35;;;2.95;;
52368;SDS011;38298;50.346;3.526;2022-08-25T03:17:37;7.25;;;2.92;;
52368;SDS011;38298;50.346;3.526;2022-08-25T03:20:04;4.97;;;2.72;;
52368;SDS011;38298;50.346;3.526;2022-08-25T03:22:30;3.38;;;2.47;;
52368;SDS011;38298;50.346;3.526;2022-08-25T03:24:57;8.00;;;2.47;;
52368;SDS011;38298;50.346;3.526;2022-08-25T03:27:43;4.68;;;2.25;;
52368;SDS011;38298;50.346;3.526;2022-08-25T03:30:09;4.75;;;2.25;;
52368;SDS011;38298;50.346;3.526;2022-08-25T03:32:35;3.95;;;2.42;;
52368;SDS011;38298;50.346;3.526;2022-08-25T03:35:02;7.00;;;2.22;;
52368;SDS011;38298;50.346;3.526;2022-08-25T03:37:29;5.97;;;2.13;;
52368;SDS011;38298;50.346;3.526;2022-08-25T03:39:55;8.15;;;2.13;;
52368;SDS011;38298;50.346;3.526;2022-08-25T03:42:21;2.92;;;2.20;;
52368;SDS011;38298;50.346;3.526;2022-08-25T03:44:47;4.13;;;2.00;;
52368;SDS011;38298;50.346;3.526;2022-08-25T03:47:13;6.45;;;2.00;;
52368;SDS011;38298;50.346;3.526;2022-08-25T03:49:40;3.13;;;2.15;;
52368;SDS011;38298;50.346;3.526;2022-08-25T03:52:06;4.80;;;2.10;;
52368;SDS011;38298;50.346;3.526;2022-08-25T03:54:32;3.30;;;1.75;;
52368;SDS011;38298;50.346;3.526;2022-08-25T03:56:58;3.83;;;2.03;;
52368;SDS011;38298;50.346;3.526;2022-08-25T03:59:24;2.92;;;1.80;;
52368;SDS011;38298;50.346;3.526;2022-08-25T04:01:51;1.77;;;1.48;;
52368;SDS011;38298;50.346;3.526;2022-08-25T04:04:17;5.78;;;1.90;;
52368;SDS011;38298;50.346;3.526;2022-08-25T04:06:44;1.83;;;1.63;;
52368;SDS011;38298;50.346;3.526;2022-08-25T04:09:11;5.03;;;1.90;;
52368;SDS011;38298;50.346;3.526;2022-08-25T04:11:37;3.38;;;1.80;;
52368;SDS011;38298;50.346;3.526;2022-08-25T04:14:03;4.10;;;1.70;;
52368;SDS011;38298;50.346;3.526;2022-08-25T04:16:31;3.58;;;1.60;;
52368;SDS011;38298;50.346;3.526;2022-08-25T04:18:58;2.42;;;1.77;;
52368;SDS011;38298;50.346;3.526;2022-08-25T04:21:24;2.78;;;1.85;;
52368;SDS011;38298;50.346;3.526;2022-08-25T04:23:51;3.38;;;1.55;;
52368;SDS011;38298;50.346;3.526;2022-08-25T04:26:19;1.70;;;1.60;;
52368;SDS011;38298;50.346;3.526;2022-08-25T04:28:46;4.05;;;1.90;;
52368;SDS011;38298;50.346;3.526;2022-08-25T04:31:13;8.32;;;1.70;;
52368;SDS011;38298;50.346;3.526;2022-08-25T04:33:39;1.58;;;1.40;;
52368;SDS011;38298;50.346;3.526;2022-08-25T04:36:06;6.10;;;1.88;;
52368;SDS011;38298;50.346;3.526;2022-08-25T04:38:33;3.95;;;1.60;;
52368;SDS011;38298;50.346;3.526;2022-08-25T04:41:01;6.32;;;1.65;;
52368;SDS011;38298;50.346;3.526;2022-08-25T04:43:28;1.77;;;1.63;;
52368;SDS011;38298;50.346;3.526;2022-08-25T04:45:54;2.80;;;1.67;;
52368;SDS011;38298;50.346;3.526;2022-08-25T04:48:20;2.42;;;1.77;;
52368;SDS011;38298;50.346;3.526;2022-08-25T04:50:46;3.67;;;1.60;;
52368;SDS011;38298;50.346;3.526;2022-08-25T04:53:13;5.03;;;1.48;;
52368;SDS011;38298;50.346;3.526;2022-08-25T04:55:43;2.63;;;1.77;;
52368;SDS011;38298;50.346;3.526;2022-08-25T05:00:35;4.90;;;1.90;;
52368;SDS011;38298;50.346;3.526;2022-08-25T05:03:02;4.03;;;1.92;;
52368;SDS011;38298;50.346;3.526;2022-08-25T05:05:28;2.83;;;1.88;;
52368;SDS011;38298;50.346;3.526;2022-08-25T05:07:55;3.47;;;1.70;;
52368;SDS011;38298;50.346;3.526;2022-08-25T05:10:21;1.75;;;1.42;;
52368;SDS011;38298;50.346;3.526;2022-08-25T05:12:47;2.72;;;1.52;;
52368;SDS011;38298;50.346;3.526;2022-08-25T05:15:13;2.28;;;1.80;;
52368;SDS011;38298;50.346;3.526;2022-08-25T05:17:58;3.30;;;1.92;;
52368;SDS011;38298;50.346;3.526;2022-08-25T05:20:24;2.38;;;1.60;;
52368;SDS011;38298;50.346;3.526;2022-08-25T05:22:50;4.20;;;1.95;;
52368;SDS011;38298;50.346;3.526;2022-08-25T05:25:17;2.83;;;2.00;;
52368;SDS011;38298;50.346;3.526;2022-08-25T05:27:43;2.70;;;1.60;;
52368;SDS011;38298;50.346;3.526;2022-08-25T05:30:09;2.90;;;1.80;;
52368;SDS011;38298;50.346;3.526;2022-08-25T05:32:36;3.88;;;1.80;;
52368;SDS011;38298;50.346;3.526;2022-08-25T05:35:03;6.03;;;2.10;;
52368;SDS011;38298;50.346;3.526;2022-08-25T05:37:29;3.20;;;1.98;;
52368;SDS011;38298;50.346;3.526;2022-08-25T05:39:55;3.40;;;2.17;;
52368;SDS011;38298;50.346;3.526;2022-08-25T05:42:22;3.65;;;1.88;;
52368;SDS011;38298;50.346;3.526;2022-08-25T05:44:49;2.17;;;1.70;;
52368;SDS011;38298;50.346;3.526;2022-08-25T05:47:15;3.05;;;1.95;;
52368;SDS011;38298;50.346;3.526;2022-08-25T05:49:41;2.53;;;1.90;;
52368;SDS011;38298;50.346;3.526;2022-08-25T05:52:07;2.55;;;1.83;;
52368;SDS011;38298;50.346;3.526;2022-08-25T05:54:33;7.45;;;1.77;;
52368;SDS011;38298;50.346;3.526;2022-08-25T05:56:59;5.00;;;2.00;;
52368;SDS011;38298;50.346;3.526;2022-08-25T05:59:25;2.72;;;1.80;;
52368;SDS011;38298;50.346;3.526;2022-08-25T06:01:51;4.00;;;1.92;;
52368;SDS011;38298;50.346;3.526;2022-08-25T06:04:36;2.80;;;1.95;;
52368;SDS011;38298;50.346;3.526;2022-08-25T06:07:03;3.85;;;2.10;;
52368;SDS011;38298;50.346;3.526;2022-08-25T06:09:29;3.85;;;1.88;;
52368;SDS011;38298;50.346;3.526;2022-08-25T06:11:55;8.57;;;1.90;;
52368;SDS011;38298;50.346;3.526;2022-08-25T06:14:22;2.72;;;1.90;;
52368;SDS011;38298;50.346;3.526;2022-08-25T06:16:48;5.40;;;2.40;;
52368;SDS011;38298;50.346;3.526;2022-08-25T06:19:15;5.32;;;1.98;;
52368;SDS011;38298;50.346;3.526;2022-08-25T06:21:41;3.15;;;2.10;;
52368;SDS011;38298;50.346;3.526;2022-08-25T06:24:08;3.25;;;2.17;;
52368;SDS011;38298;50.346;3.526;2022-08-25T06:26:35;4.70;;;2.03;;
52368;SDS011;38298;50.346;3.526;2022-08-25T06:29:02;9.38;;;2.22;;
52368;SDS011;38298;50.346;3.526;2022-08-25T06:31:28;6.35;;;1.95;;
52368;SDS011;38298;50.346;3.526;2022-08-25T06:33:54;5.15;;;2.35;;
52368;SDS011;38298;50.346;3.526;2022-08-25T06:36:22;6.53;;;2.10;;
52368;SDS011;38298;50.346;3.526;2022-08-25T06:38:48;5.30;;;2.30;;
52368;SDS011;38298;50.346;3.526;2022-08-25T06:41:14;2.10;;;1.67;;
52368;SDS011;38298;50.346;3.526;2022-08-25T06:43:41;3.15;;;1.67;;
52368;SDS011;38298;50.346;3.526;2022-08-25T06:46:10;5.10;;;1.40;;
52368;SDS011;38298;50.346;3.526;2022-08-25T06:48:37;9.40;;;2.00;;
52368;SDS011;38298;50.346;3.526;2022-08-25T06:51:04;3.28;;;1.92;;
52368;SDS011;38298;50.346;3.526;2022-08-25T06:53:31;3.25;;;1.60;;
52368;SDS011;38298;50.346;3.526;2022-08-25T06:55:57;2.47;;;1.90;;
52368;SDS011;38298;50.346;3.526;2022-08-25T06:58:23;7.60;;;1.70;;
52368;SDS011;38298;50.346;3.526;2022-08-25T07:00:50;3.75;;;1.88;;
52368;SDS011;38298;50.346;3.526;2022-08-25T07:03:16;2.90;;;1.75;;
52368;SDS011;38298;50.346;3.526;2022-08-25T07:05:49;1.60;;;1.50;;
52368;SDS011;38298;50.346;3.526;2022-08-25T07:08:15;3.30;;;1.88;;
52368;SDS011;38298;50.346;3.526;2022-08-25T07:10:41;3.25;;;1.55;;
52368;SDS011;38298;50.346;3.526;2022-08-25T07:13:07;3.40;;;1.80;;
52368;SDS011;38298;50.346;3.526;2022-08-25T07:15:36;2.17;;;1.73;;
52368;SDS011;38298;50.346;3.526;2022-08-25T07:18:03;3.60;;;1.58;;
52368;SDS011;38298;50.346;3.526;2022-08-25T07:20:32;7.47;;;1.45;;
52368;SDS011;38298;50.346;3.526;2022-08-25T07:22:58;3.20;;;1.50;;
52368;SDS011;38298;50.346;3.526;2022-08-25T07:25:24;2.95;;;2.17;;
52368;SDS011;38298;50.346;3.526;2022-08-25T07:27:50;4.13;;;1.88;;
52368;SDS011;38298;50.346;3.526;2022-08-25T07:30:17;2.03;;;1.27;;
52368;SDS011;38298;50.346;3.526;2022-08-25T07:32:43;3.17;;;1.48;;
52368;SDS011;38298;50.346;3.526;2022-08-25T07:35:09;4.10;;;1.30;;
52368;SDS011;38298;50.346;3.526;2022-08-25T07:37:42;2.78;;;1.63;;
52368;SDS011;38298;50.346;3.526;2022-08-25T07:40:19;4.88;;;1.40;;
52368;SDS011;38298;50.346;3.526;2022-08-25T07:42:49;4.60;;;1.40;;
52368;SDS011;38298;50.346;3.526;2022-08-25T07:47:42;5.97;;;1.50;;
52368;SDS011;38298;50.346;3.526;2022-08-25T07:50:09;4.90;;;1.70;;
52368;SDS011;38298;50.346;3.526;2022-08-25T07:52:36;2.13;;;1.23;;
52368;SDS011;38298;50.346;3.526;2022-08-25T07:55:02;4.70;;;1.45;;
52368;SDS011;38298;50.346;3.526;2022-08-25T07:57:28;3.42;;;1.30;;
52368;SDS011;38298;50.346;3.526;2022-08-25T07:59:54;1.92;;;1.50;;
52368;SDS011;38298;50.346;3.526;2022-08-25T08:02:22;3.42;;;1.33;;
52368;SDS011;38298;50.346;3.526;2022-08-25T08:04:49;5.32;;;1.45;;
52368;SDS011;38298;50.346;3.526;2022-08-25T08:07:18;2.80;;;1.40;;
52368;SDS011;38298;50.346;3.526;2022-08-25T08:09:45;1.33;;;1.23;;
52368;SDS011;38298;50.346;3.526;2022-08-25T08:12:11;2.60;;;1.38;;
52368;SDS011;38298;50.346;3.526;2022-08-25T08:14:38;1.52;;;1.17;;
52368;SDS011;38298;50.346;3.526;2022-08-25T08:17:07;1.70;;;1.40;;
52368;SDS011;38298;50.346;3.526;2022-08-25T08:19:34;2.13;;;1.00;;
52368;SDS011;38298;50.346;3.526;2022-08-25T08:22:02;1.75;;;1.20;;
52368;SDS011;38298;50.346;3.526;2022-08-25T08:24:28;1.52;;;1.10;;
52368;SDS011;38298;50.346;3.526;2022-08-25T08:26:54;1.42;;;1.33;;
52368;SDS011;38298;50.346;3.526;2022-08-25T08:29:21;2.03;;;1.08;;
52368;SDS011;38298;50.346;3.526;2022-08-25T08:31:47;3.45;;;1.20;;
52368;SDS011;38298;50.346;3.526;2022-08-25T08:34:13;4.70;;;1.30;;
52368;SDS011;38298;50.346;3.526;2022-08-25T08:36:39;2.40;;;1.25;;
52368;SDS011;38298;50.346;3.526;2022-08-25T08:39:05;2.50;;;1.05;;
52368;SDS011;38298;50.346;3.526;2022-08-25T08:41:40;6.72;;;1.35;;
52368;SDS011;38298;50.346;3.526;2022-08-25T08:47:11;2.95;;;1.08;;
52368;SDS011;38298;50.346;3.526;2022-08-25T08:55:09;4.75;;;1.20;;
52368;SDS011;38298;50.346;3.526;2022-08-25T08:57:39;1.50;;;1.20;;
52368;SDS011;38298;50.346;3.526;2022-08-25T09:00:08;2.50;;;1.10;;
52368;SDS011;38298;50.346;3.526;2022-08-25T09:02:41;6.15;;;1.02;;
52368;SDS011;38298;50.346;3.526;2022-08-25T09:05:12;3.00;;;1.20;;
52368;SDS011;38298;50.346;3.526;2022-08-25T09:07:40;6.15;;;1.13;;
52368;SDS011;38298;50.346;3.526;2022-08-25T09:10:08;1.48;;;1.20;;
52368;SDS011;38298;50.346;3.526;2022-08-25T09:12:48;1.98;;;1.08;;
52368;SDS011;38298;50.346;3.526;2022-08-25T09:15:22;3.53;;;1.13;;
52368;SDS011;38298;50.346;3.526;2022-08-25T09:20:53;1.58;;;0.95;;
52368;SDS011;38298;50.346;3.526;2022-08-25T09:23:33;5.03;;;1.20;;
52368;SDS011;38298;50.346;3.526;2022-08-25T09:28:49;3.10;;;1.05;;
52368;SDS011;38298;50.346;3.526;2022-08-25T09:31:18;4.22;;;1.02;;
52368;SDS011;38298;50.346;3.526;2022-08-25T09:33:46;5.13;;;0.98;;
52368;SDS011;38298;50.346;3.526;2022-08-25T09:36:12;3.15;;;0.90;;
52368;SDS011;38298;50.346;3.526;2022-08-25T09:38:38;2.25;;;0.90;;
52368;SDS011;38298;50.346;3.526;2022-08-25T09:41:05;1.02;;;0.90;;
52368;SDS011;38298;50.346;3.526;2022-08-25T09:48:31;1.33;;;0.70;;
52368;SDS011;38298;50.346;3.526;2022-08-25T09:51:20;1.25;;;0.70;;
52368;SDS011;38298;50.346;3.526;2022-08-25T09:54:33;1.83;;;1.00;;
52368;SDS011;38298;50.346;3.526;2022-08-25T09:56:35;1.65;;;0.90;;
52368;SDS011;38298;50.346;3.526;2022-08-25T09:59:24;4.15;;;0.93;;
52368;SDS011;38298;50.346;3.526;2022-08-25T10:01:51;3.92;;;1.35;;
52368;SDS011;38298;50.346;3.526;2022-08-25T10:04:27;1.00;;;0.80;;
52368;SDS011;38298;50.346;3.526;2022-08-25T10:06:56;2.80;;;0.85;;
52368;SDS011;38298;50.346;3.526;2022-08-25T10:12:21;3.35;;;0.80;;
52368;SDS011;38298;50.346;3.526;2022-08-25T10:14:48;1.00;;;0.80;;
52368;SDS011;38298;50.346;3.526;2022-08-25T10:17:26;1.25;;;0.80;;
52368;SDS011;38298;50.346;3.526;2022-08-25T10:19:54;2.05;;;1.10;;
52368;SDS011;38298;50.346;3.526;2022-08-25T10:22:24;3.30;;;1.02;;
52368;SDS011;38298;50.346;3.526;2022-08-25T10:24:56;1.52;;;1.10;;
52368;SDS011;38298;50.346;3.526;2022-08-25T10:32:36;1.98;;;1.30;;
52368;SDS011;38298;50.346;3.526;2022-08-25T10:35:11;3.83;;;1.52;;
52368;SDS011;38298;50.346;3.526;2022-08-25T10:37:41;1.60;;;1.00;;
52368;SDS011;38298;50.346;3.526;2022-08-25T10:40:14;1.95;;;0.68;;
52368;SDS011;38298;50.346;3.526;2022-08-25T10:42:57;2.90;;;0.82;;
52368;SDS011;38298;50.346;3.526;2022-08-25T10:45:26;3.38;;;0.80;;
52368;SDS011;38298;50.346;3.526;2022-08-25T10:48:15;1.48;;;0.95;;
52368;SDS011;38298;50.346;3.526;2022-08-25T10:50:47;1.45;;;1.00;;
52368;SDS011;38298;50.346;3.526;2022-08-25T10:53:25;2.75;;;1.25;;
52368;SDS011;38298;50.346;3.526;2022-08-25T11:06:05;1.20;;;1.10;;
52368;SDS011;38298;50.346;3.526;2022-08-25T11:08:37;3.75;;;0.98;;
52368;SDS011;38298;50.346;3.526;2022-08-25T11:11:07;4.20;;;1.90;;
52368;SDS011;38298;50.346;3.526;2022-08-25T11:13:42;1.27;;;0.88;;
52368;SDS011;38298;50.346;3.526;2022-08-25T11:16:11;7.75;;;1.40;;
52368;SDS011;38298;50.346;3.526;2022-08-25T11:18:43;1.80;;;1.05;;
52368;SDS011;38298;50.346;3.526;2022-08-25T11:24:06;5.03;;;1.30;;
52368;SDS011;38298;50.346;3.526;2022-08-25T11:26:36;2.03;;;1.10;;
52368;SDS011;38298;50.346;3.526;2022-08-25T11:29:05;1.98;;;1.60;;
52368;SDS011;38298;50.346;3.526;2022-08-25T11:31:38;2.47;;;1.60;;
52368;SDS011;38298;50.346;3.526;2022-08-25T11:34:07;2.70;;;1.65;;
52368;SDS011;38298;50.346;3.526;2022-08-25T11:36:35;4.72;;;1.30;;
52368;SDS011;38298;50.346;3.526;2022-08-25T11:46:50;4.85;;;1.40;;
52368;SDS011;38298;50.346;3.526;2022-08-25T11:49:26;4.75;;;0.73;;
52368;SDS011;38298;50.346;3.526;2022-08-25T11:51:55;6.22;;;1.35;;
52368;SDS011;38298;50.346;3.526;2022-08-25T11:57:07;1.50;;;1.40;;
52368;SDS011;38298;50.346;3.526;2022-08-25T12:05:02;2.70;;;1.05;;
52368;SDS011;38298;50.346;3.526;2022-08-25T12:10:17;2.70;;;1.60;;
52368;SDS011;38298;50.346;3.526;2022-08-25T12:36:30;2.00;;;1.20;;
52368;SDS011;38298;50.346;3.526;2022-08-25T12:41:54;3.72;;;1.20;;
52368;SDS011;38298;50.346;3.526;2022-08-25T12:47:10;2.28;;;1.75;;
52368;SDS011;38298;50.346;3.526;2022-08-25T12:49:36;5.90;;;1.50;;
52368;SDS011;38298;50.346;3.526;2022-08-25T12:52:15;4.88;;;1.88;;
52368;SDS011;38298;50.346;3.526;2022-08-25T12:54:54;4.65;;;1.58;;
52368;SDS011;38298;50.346;3.526;2022-08-25T12:57:26;3.42;;;1.88;;
52368;SDS011;38298;50.346;3.526;2022-08-25T12:59:55;5.60;;;1.48;;
52368;SDS011;38298;50.346;3.526;2022-08-25T13:02:45;6.22;;;1.75;;
52368;SDS011;38298;50.346;3.526;2022-08-25T13:10:49;8.88;;;2.60;;
52368;SDS011;38298;50.346;3.526;2022-08-25T13:15:57;4.13;;;2.60;;
52368;SDS011;38298;50.346;3.526;2022-08-25T13:18:27;7.70;;;2.40;;
52368;SDS011;38298;50.346;3.526;2022-08-25T13:23:39;8.75;;;2.60;;
52368;SDS011;38298;50.346;3.526;2022-08-25T13:26:06;3.63;;;2.30;;
52368;SDS011;38298;50.346;3.526;2022-08-25T13:28:33;2.67;;;2.20;;
52368;SDS011;38298;50.346;3.526;2022-08-25T13:31:04;7.70;;;2.50;;
52368;SDS011;38298;50.346;3.526;2022-08-25T13:33:31;5.85;;;2.30;;
52368;SDS011;38298;50.346;3.526;2022-08-25T13:35:58;4.30;;;2.42;;
52368;SDS011;38298;50.346;3.526;2022-08-25T13:38:44;7.65;;;2.33;;
52368;SDS011;38298;50.346;3.526;2022-08-25T13:41:15;2.42;;;2.17;;
52368;SDS011;38298;50.346;3.526;2022-08-25T13:43:41;6.95;;;3.00;;
52368;SDS011;38298;50.346;3.526;2022-08-25T13:46:07;3.35;;;2.17;;
52368;SDS011;38298;50.346;3.526;2022-08-25T13:48:34;3.22;;;2.35;;
52368;SDS011;38298;50.346;3.526;2022-08-25T13:51:20;6.10;;;2.75;;
52368;SDS011;38298;50.346;3.526;2022-08-25T13:53:57;7.47;;;2.30;;
52368;SDS011;38298;50.346;3.526;2022-08-25T13:56:25;9.10;;;2.63;;
52368;SDS011;38298;50.346;3.526;2022-08-25T13:58:51;4.05;;;2.20;;
52368;SDS011;38298;50.346;3.526;2022-08-25T14:01:21;5.72;;;2.22;;
52368;SDS011;38298;50.346;3.526;2022-08-25T14:03:49;5.80;;;2.70;;
52368;SDS011;38298;50.346;3.526;2022-08-25T14:11:28;3.78;;;2.83;;
52368;SDS011;38298;50.346;3.526;2022-08-25T14:14:40;4.22;;;2.22;;
52368;SDS011;38298;50.346;3.526;2022-08-25T14:16:50;4.40;;;2.63;;
52368;SDS011;38298;50.346;3.526;2022-08-25T14:19:18;2.65;;;2.15;;
52368;SDS011;38298;50.346;3.526;2022-08-25T14:21:45;6.28;;;2.55;;
52368;SDS011;38298;50.346;3.526;2022-08-25T14:24:15;4.65;;;2.17;;
52368;SDS011;38298;50.346;3.526;2022-08-25T14:26:42;7.13;;;2.83;;
52368;SDS011;38298;50.346;3.526;2022-08-25T14:29:08;6.10;;;2.65;;
52368;SDS011;38298;50.346;3.526;2022-08-25T14:31:35;3.22;;;2.35;;
52368;SDS011;38298;50.346;3.526;2022-08-25T14:34:04;6.57;;;2.78;;
52368;SDS011;38298;50.346;3.526;2022-08-25T14:36:32;10.63;;;2.65;;
52368;SDS011;38298;50.346;3.526;2022-08-25T14:38:59;5.65;;;2.70;;
52368;SDS011;38298;50.346;3.526;2022-08-25T14:41:30;5.00;;;2.97;;
52368;SDS011;38298;50.346;3.526;2022-08-25T14:43:58;5.80;;;2.70;;
52368;SDS011;38298;50.346;3.526;2022-08-25T14:46:25;3.75;;;2.40;;
52368;SDS011;38298;50.346;3.526;2022-08-25T14:48:52;10.98;;;2.33;;
52368;SDS011;38298;50.346;3.526;2022-08-25T14:51:20;3.88;;;2.15;;
52368;SDS011;38298;50.346;3.526;2022-08-25T14:53:47;3.47;;;2.15;;
52368;SDS011;38298;50.346;3.526;2022-08-25T14:56:13;5.00;;;2.20;;
52368;SDS011;38298;50.346;3.526;2022-08-25T14:58:39;4.57;;;1.88;;
52368;SDS011;38298;50.346;3.526;2022-08-25T15:01:05;3.13;;;2.10;;
52368;SDS011;38298;50.346;3.526;2022-08-25T15:03:35;7.68;;;1.92;;
52368;SDS011;38298;50.346;3.526;2022-08-25T15:06:02;2.00;;;1.70;;
52368;SDS011;38298;50.346;3.526;2022-08-25T15:08:28;4.82;;;1.73;;
52368;SDS011;38298;50.346;3.526;2022-08-25T15:11:13;6.68;;;1.50;;
52368;SDS011;38298;50.346;3.526;2022-08-25T15:13:39;6.07;;;1.73;;
52368;SDS011;38298;50.346;3.526;2022-08-25T15:16:06;4.68;;;1.27;;
52368;SDS011;38298;50.346;3.526;2022-08-25T15:18:33;4.32;;;1.83;;
52368;SDS011;38298;50.346;3.526;2022-08-25T15:20:59;6.68;;;1.40;;
52368;SDS011;38298;50.346;3.526;2022-08-25T15:23:26;7.43;;;1.48;;
52368;SDS011;38298;50.346;3.526;2022-08-25T15:25:53;5.00;;;1.42;;
52368;SDS011;38298;50.346;3.526;2022-08-25T15:28:20;5.70;;;1.30;;
52368;SDS011;38298;50.346;3.526;2022-08-25T15:30:46;3.58;;;1.20;;
52368;SDS011;38298;50.346;3.526;2022-08-25T15:33:13;7.20;;;1.98;;
52368;SDS011;38298;50.346;3.526;2022-08-25T15:35:39;3.38;;;1.50;;
52368;SDS011;38298;50.346;3.526;2022-08-25T15:38:05;6.38;;;1.83;;
52368;SDS011;38298;50.346;3.526;2022-08-25T15:40:31;6.50;;;1.60;;
52368;SDS011;38298;50.346;3.526;2022-08-25T15:42:59;5.85;;;1.55;;
52368;SDS011;38298;50.346;3.526;2022-08-25T15:45:25;6.75;;;1.83;;
52368;SDS011;38298;50.346;3.526;2022-08-25T15:47:51;7.85;;;1.88;;
52368;SDS011;38298;50.346;3.526;2022-08-25T15:50:18;7.15;;;2.30;;
52368;SDS011;38298;50.346;3.526;2022-08-25T15:52:45;4.22;;;2.10;;
52368;SDS011;38298;50.346;3.526;2022-08-25T15:55:11;5.28;;;2.30;;
52368;SDS011;38298;50.346;3.526;2022-08-25T15:57:38;4.40;;;2.13;;
52368;SDS011;38298;50.346;3.526;2022-08-25T16:00:05;5.28;;;2.20;;
52368;SDS011;38298;50.346;3.526;2022-08-25T16:02:32;7.25;;;2.65;;
52368;SDS011;38298;50.346;3.526;2022-08-25T16:04:59;4.35;;;2.25;;
52368;SDS011;38298;50.346;3.526;2022-08-25T16:07:25;8.98;;;2.70;;
52368;SDS011;38298;50.346;3.526;2022-08-25T16:09:55;6.45;;;3.88;;
52368;SDS011;38298;50.346;3.526;2022-08-25T16:12:22;7.90;;;3.10;;
52368;SDS011;38298;50.346;3.526;2022-08-25T16:14:48;10.15;;;3.47;;
52368;SDS011;38298;50.346;3.526;2022-08-25T16:17:15;7.60;;;3.65;;
52368;SDS011;38298;50.346;3.526;2022-08-25T16:19:41;8.82;;;3.80;;
52368;SDS011;38298;50.346;3.526;2022-08-25T16:22:07;7.30;;;3.00;;
52368;SDS011;38298;50.346;3.526;2022-08-25T16:24:33;9.15;;;2.97;;
52368;SDS011;38298;50.346;3.526;2022-08-25T16:26:59;7.07;;;4.43;;
52368;SDS011;38298;50.346;3.526;2022-08-25T16:29:39;6.68;;;3.20;;
52368;SDS011;38298;50.346;3.526;2022-08-25T16:32:05;4.05;;;2.90;;
52368;SDS011;38298;50.346;3.526;2022-08-25T16:34:32;6.40;;;2.90;;
52368;SDS011;38298;50.346;3.526;2022-08-25T16:36:59;6.82;;;3.22;;
52368;SDS011;38298;50.346;3.526;2022-08-25T16:39:25;19.10;;;4.82;;
52368;SDS011;38298;50.346;3.526;2022-08-25T16:41:52;7.68;;;3.90;;
52368;SDS011;38298;50.346;3.526;2022-08-25T16:44:18;5.97;;;3.72;;
52368;SDS011;38298;50.346;3.526;2022-08-25T16:46:45;8.82;;;3.88;;
52368;SDS011;38298;50.346;3.526;2022-08-25T16:49:11;5.50;;;3.13;;
52368;SDS011;38298;50.346;3.526;2022-08-25T16:51:38;9.75;;;3.70;;